createdAt,value
2019-02-05T00:01:41.724Z,70.72
2019-02-05T00:04:12.199Z,70.62
2019-02-05T00:06:42.631Z,70.14
2019-02-05T00:09:14.074Z,70.27
2019-02-05T00:11:44.529Z,70.14
2019-02-05T00:14:15.352Z,69.47
2019-02-05T00:16:46.496Z,69.52
2019-02-05T00:19:16.931Z,69.63
2019-02-05T00:21:47.385Z,69.77
2019-02-05T00:24:18.197Z,69.80
2019-02-05T00:26:48.933Z,69.85
2019-02-05T00:29:20.158Z,69.99
2019-02-05T00:31:50.761Z,69.94
2019-02-05T00:34:21.194Z,69.54
2019-02-05T00:36:51.647Z,69.86
2019-02-05T00:39:22.077Z,68.91
2019-02-05T00:41:52.593Z,68.75
2019-02-05T00:44:23.031Z,69.20
2019-02-05T00:46:53.461Z,69.48
2019-02-05T00:49:23.933Z,69.88
2019-02-05T00:51:55.260Z,69.63
2019-02-05T00:54:25.737Z,69.29
2019-02-05T00:56:56.348Z,69.38
2019-02-05T00:59:27.078Z,69.38
2019-02-05T01:01:57.530Z,69.45
2019-02-05T01:04:27.962Z,69.17
2019-02-05T01:06:58.534Z,69.28
2019-02-05T01:09:29.474Z,69.04
2019-02-05T01:11:59.905Z,70.03
2019-02-05T01:14:30.360Z,69.99
2019-02-05T01:17:00.793Z,69.79
2019-02-05T01:19:31.280Z,68.88
2019-02-05T01:22:02.690Z,69.97
2019-02-05T01:24:33.128Z,69.60
2019-02-05T01:27:03.853Z,70.23
2019-02-05T01:29:34.551Z,70.40
2019-02-05T01:32:05.005Z,70.45
2019-02-05T01:34:35.456Z,70.03
2019-02-05T01:37:05.941Z,70.56
2019-02-05T01:39:36.366Z,69.87
2019-02-05T01:42:06.792Z,70.31
2019-02-05T01:44:37.263Z,70.70
2019-02-05T01:47:07.697Z,70.31
2019-02-05T01:49:38.560Z,69.76
2019-02-05T01:52:09.872Z,71.30
2019-02-05T01:54:40.950Z,70.51
2019-02-05T01:57:12.080Z,70.33
2019-02-05T01:59:42.516Z,71.10
2019-02-05T02:02:13.918Z,71.36
2019-02-05T02:04:44.385Z,71.24
2019-02-05T02:07:14.862Z,71.67
2019-02-05T02:09:45.293Z,71.19
2019-02-05T02:12:16.193Z,70.93
2019-02-05T02:14:46.694Z,70.74
2019-02-05T02:17:17.127Z,71.17
2019-02-05T02:19:47.609Z,71.25
2019-02-05T02:22:18.429Z,71.40
2019-02-05T02:24:49.162Z,71.46
2019-02-05T02:27:20.099Z,71.18
2019-02-05T02:29:51.000Z,71.77
2019-02-05T02:32:21.473Z,71.34
2019-02-05T02:34:51.907Z,71.37
2019-02-05T02:37:22.639Z,71.87
2019-02-05T02:39:53.105Z,72.33
2019-02-05T02:42:23.540Z,72.53
2019-02-05T02:44:54.027Z,72.94
2019-02-05T02:47:27.707Z,73.65
2019-02-05T02:49:56.904Z,74.62
2019-02-05T02:52:27.370Z,74.03
2019-02-05T02:54:57.803Z,74.35
2019-02-05T02:57:28.457Z,74.34
2019-02-05T02:59:58.897Z,74.33
2019-02-05T03:02:29.332Z,74.01
2019-02-05T03:04:59.968Z,74.90
2019-02-05T03:07:30.410Z,74.39
2019-02-05T03:10:01.295Z,74.30
2019-02-05T03:12:32.711Z,75.07
2019-02-05T03:15:03.168Z,75.65
2019-02-05T03:17:34.642Z,75.92
2019-02-05T03:20:06.051Z,76.23
2019-02-05T03:22:36.573Z,76.50
2019-02-05T03:25:08.473Z,76.27
2019-02-05T03:27:38.912Z,76.18
2019-02-05T03:30:12.734Z,76.55
2019-02-05T03:32:43.172Z,76.87
2019-02-05T03:35:13.990Z,77.27
2019-02-05T03:37:44.624Z,77.83
2019-02-05T03:40:53.168Z,78.26
2019-02-05T03:43:24.458Z,78.50
2019-02-05T03:45:56.475Z,79.15
2019-02-05T03:48:28.189Z,79.26
2019-02-05T03:51:24.049Z,79.08
2019-02-05T03:54:05.691Z,78.68
2019-02-05T03:57:00.448Z,79.18
2019-02-05T04:00:06.695Z,79.42
2019-02-05T04:03:06.933Z,79.26
2019-02-05T04:06:20.976Z,79.35
2019-02-05T04:09:12.361Z,79.80
2019-02-05T04:12:21.527Z,79.90
2019-02-05T04:15:21.622Z,80.08
2019-02-05T04:18:41.846Z,80.65
2019-02-05T04:21:31.908Z,80.71
2019-02-05T04:24:28.374Z,81.09
2019-02-05T04:27:24.103Z,81.30
2019-02-05T04:30:50.737Z,81.21
2019-02-05T04:33:43.348Z,81.66
2019-02-05T04:36:53.988Z,81.64
2019-02-05T04:40:14.717Z,82.19
2019-02-05T04:43:14.695Z,82.38
2019-02-05T04:46:35.806Z,82.58
2019-02-05T04:49:39.433Z,82.57
2019-02-05T04:52:55.061Z,82.62
2019-02-05T04:55:59.960Z,82.65
2019-02-05T04:58:56.029Z,82.93
2019-02-05T05:01:52.716Z,82.98
2019-02-05T05:05:01.201Z,82.56
2019-02-05T05:08:11.153Z,83.01
2019-02-05T05:10:41.585Z,83.01
2019-02-05T05:13:12.053Z,83.45
2019-02-05T05:15:42.866Z,83.71
2019-02-05T05:18:15.556Z,83.63
2019-02-05T05:20:46.268Z,84.19
2019-02-05T05:23:16.838Z,84.14
2019-02-05T05:25:47.694Z,83.90
2019-02-05T05:28:18.231Z,84.31
2019-02-05T05:30:49.084Z,83.91
2019-02-05T05:33:19.521Z,84.45
2019-02-05T05:35:50.013Z,84.88
2019-02-05T05:38:21.173Z,84.58
2019-02-05T05:40:51.604Z,84.95
2019-02-05T05:43:22.553Z,84.43
2019-02-05T05:45:53.436Z,84.61
2019-02-05T05:48:24.501Z,84.93
2019-02-05T05:50:54.938Z,84.85
2019-02-05T05:53:25.430Z,84.75
2019-02-05T05:55:55.907Z,84.83
2019-02-05T05:58:26.349Z,85.10
2019-02-05T06:00:57.536Z,85.21
2019-02-05T06:03:28.303Z,85.36
2019-02-05T06:05:59.115Z,85.87
2019-02-05T06:08:29.588Z,85.70
2019-02-05T06:11:00.286Z,85.82
2019-02-05T06:13:31.160Z,85.79
2019-02-05T06:16:01.952Z,85.76
2019-02-05T06:18:33.038Z,85.83
2019-02-05T06:21:04.389Z,86.00
2019-02-05T06:23:34.855Z,86.06
2019-02-05T06:26:05.403Z,85.97
2019-02-05T06:28:35.910Z,85.85
2019-02-05T06:31:06.369Z,86.02
2019-02-05T06:33:37.238Z,86.47
2019-02-05T06:36:07.710Z,86.25
2019-02-05T06:38:38.614Z,86.55
2019-02-05T06:41:09.235Z,86.59
2019-02-05T06:43:40.386Z,86.40
2019-02-05T06:46:10.835Z,86.34
2019-02-05T06:48:41.325Z,86.09
2019-02-05T06:51:11.773Z,86.21
2019-02-05T06:53:42.791Z,86.13
2019-02-05T06:56:13.278Z,86.12
2019-02-05T06:58:46.374Z,86.29
2019-02-05T07:01:16.075Z,86.45
2019-02-05T07:03:46.535Z,86.52
2019-02-05T07:06:17.027Z,86.91
2019-02-05T07:08:47.842Z,86.81
2019-02-05T07:11:18.907Z,86.98
2019-02-05T07:13:49.723Z,87.14
2019-02-05T07:16:20.176Z,87.15
2019-02-05T07:18:50.621Z,87.47
2019-02-05T07:21:21.096Z,87.34
2019-02-05T07:23:51.583Z,87.24
2019-02-05T07:26:22.795Z,87.09
2019-02-05T07:28:58.438Z,87.62
2019-02-05T07:31:25.909Z,87.48
2019-02-05T07:33:56.359Z,87.26
2019-02-05T07:36:26.839Z,87.45
2019-02-05T07:38:58.014Z,87.55
2019-02-05T07:41:28.895Z,87.33
2019-02-05T07:43:59.344Z,87.71
2019-02-05T07:46:29.790Z,87.79
2019-02-05T07:49:00.288Z,87.73
2019-02-05T07:51:30.735Z,87.77
2019-02-05T07:54:01.180Z,87.96
2019-02-05T07:56:31.669Z,87.74
2019-02-05T07:59:09.846Z,88.13
2019-02-05T08:01:34.778Z,88.18
2019-02-05T08:04:05.534Z,88.45
2019-02-05T08:06:36.426Z,88.51
2019-02-05T08:09:10.124Z,88.72
2019-02-05T08:11:41.492Z,88.63
2019-02-05T08:14:12.219Z,88.84
2019-02-05T08:16:43.046Z,89.17
2019-02-05T08:19:13.496Z,89.58
2019-02-05T08:21:43.976Z,89.47
2019-02-05T08:24:14.426Z,89.74
2019-02-05T08:26:44.966Z,89.73
2019-02-05T08:29:21.715Z,89.44
2019-02-05T08:31:47.738Z,89.58
2019-02-05T08:34:18.229Z,89.43
2019-02-05T08:36:48.668Z,89.64
2019-02-05T08:39:19.166Z,89.22
2019-02-05T08:41:49.695Z,89.21
2019-02-05T08:44:20.167Z,89.26
2019-02-05T08:46:50.646Z,89.23
2019-02-05T08:49:22.326Z,89.07
2019-02-05T08:51:52.834Z,89.33
2019-02-05T08:54:23.292Z,89.47
2019-02-05T08:56:53.899Z,89.30
2019-02-05T08:59:25.070Z,89.61
2019-02-05T09:01:56.223Z,89.71
2019-02-05T09:04:26.719Z,89.32
2019-02-05T09:06:57.898Z,89.34
2019-02-05T09:09:28.346Z,89.48
2019-02-05T09:11:58.826Z,89.55
2019-02-05T09:14:29.590Z,89.31
2019-02-05T09:17:00.430Z,88.92
2019-02-05T09:19:31.270Z,88.93
2019-02-05T09:22:01.908Z,88.94
2019-02-05T09:24:32.390Z,88.98
2019-02-05T09:27:03.763Z,89.18
2019-02-05T09:29:34.530Z,89.06
2019-02-05T09:32:05.520Z,88.83
2019-02-05T09:34:35.970Z,89.36
2019-02-05T09:37:06.462Z,89.30
2019-02-05T09:39:37.086Z,89.61
2019-02-05T09:42:07.854Z,89.56
2019-02-05T09:44:38.307Z,89.65
2019-02-05T09:47:08.753Z,89.21
2019-02-05T09:49:39.598Z,89.12
2019-02-05T09:52:10.148Z,88.66
2019-02-05T09:54:40.644Z,88.19
2019-02-05T09:57:11.366Z,88.50
2019-02-05T09:59:45.488Z,88.46
2019-02-05T10:02:14.618Z,88.72
2019-02-05T10:04:45.059Z,88.39
2019-02-05T10:07:15.575Z,88.64
2019-02-05T10:09:46.029Z,88.11
2019-02-05T10:12:16.894Z,88.61
2019-02-05T10:14:47.674Z,88.38
2019-02-05T10:17:18.129Z,88.19
2019-02-05T10:19:48.609Z,88.27
2019-02-05T10:22:19.069Z,87.99
2019-02-05T10:24:50.105Z,87.95
2019-02-05T10:27:21.267Z,87.86
2019-02-05T10:29:57.889Z,87.82
2019-02-05T10:32:23.927Z,88.09
2019-02-05T10:34:54.426Z,87.80
2019-02-05T10:37:24.951Z,88.15
2019-02-05T10:39:56.352Z,87.76
2019-02-05T10:42:27.654Z,87.80
2019-02-05T10:44:58.153Z,87.62
2019-02-05T10:47:28.619Z,87.70
2019-02-05T10:49:59.227Z,87.36
2019-02-05T10:52:30.012Z,87.35
2019-02-05T10:55:01.069Z,87.02
2019-02-05T10:57:31.614Z,87.06
2019-02-05T11:00:09.126Z,87.26
2019-02-05T11:02:34.278Z,87.32
2019-02-05T11:05:05.846Z,87.18
2019-02-05T11:07:36.639Z,86.99
2019-02-05T11:10:08.911Z,87.07
2019-02-05T11:12:39.412Z,87.27
2019-02-05T11:15:12.708Z,87.50
2019-02-05T11:17:43.225Z,87.43
2019-02-05T11:20:16.339Z,87.52
2019-02-05T11:22:47.818Z,87.63
2019-02-05T11:25:18.633Z,87.89
2019-02-05T11:27:49.712Z,87.77
2019-02-05T11:30:26.370Z,87.73
2019-02-05T11:32:57.108Z,87.55
2019-02-05T11:35:27.882Z,87.44
2019-02-05T11:37:58.355Z,87.67
2019-02-05T11:40:31.975Z,87.92
2019-02-05T11:43:02.644Z,87.75
2019-02-05T11:45:33.577Z,88.13
2019-02-05T11:48:05.171Z,88.53
2019-02-05T11:50:36.027Z,88.70
2019-02-05T11:53:06.623Z,88.84
2019-02-05T11:55:37.259Z,88.80
2019-02-05T11:58:07.997Z,89.08
2019-02-05T12:00:56.483Z,89.14
2019-02-05T12:03:27.011Z,89.33
2019-02-05T12:05:57.503Z,89.21
2019-02-05T12:08:28.002Z,88.78
2019-02-05T12:10:58.466Z,89.23
2019-02-05T12:13:29.072Z,89.11
2019-02-05T12:15:59.566Z,89.03
2019-02-05T12:18:30.444Z,88.91
2019-02-05T12:21:00.982Z,88.96
2019-02-05T12:23:32.818Z,88.73
2019-02-05T12:26:03.340Z,88.59
2019-02-05T12:28:34.618Z,88.70
2019-02-05T12:31:05.487Z,88.76
2019-02-05T12:33:36.273Z,88.41
2019-02-05T12:36:07.244Z,88.61
2019-02-05T12:38:38.472Z,88.55
2019-02-05T12:41:08.918Z,88.22
2019-02-05T12:43:39.375Z,88.24
2019-02-05T12:46:10.779Z,88.09
2019-02-05T12:48:41.455Z,88.08
2019-02-05T12:51:12.131Z,88.19
2019-02-05T12:53:43.039Z,87.95
2019-02-05T12:56:13.575Z,88.06
2019-02-05T12:58:44.487Z,87.92
2019-02-05T13:01:14.943Z,88.29
2019-02-05T13:03:45.491Z,88.38
2019-02-05T13:06:15.938Z,88.20
2019-02-05T13:08:46.431Z,88.02
2019-02-05T13:11:16.920Z,88.00
2019-02-05T13:13:47.599Z,88.24
2019-02-05T13:16:18.395Z,87.99
2019-02-05T13:18:51.817Z,87.95
2019-02-05T13:21:21.398Z,88.01
2019-02-05T13:23:51.979Z,88.01
2019-02-05T13:26:22.450Z,87.89
2019-02-05T13:28:53.418Z,88.00
2019-02-05T13:31:24.316Z,87.97
2019-02-05T13:33:54.784Z,87.77
2019-02-05T13:36:25.282Z,87.88
2019-02-05T13:38:55.742Z,87.68
2019-02-05T13:41:29.018Z,87.78
2019-02-05T13:43:59.184Z,88.12
2019-02-05T13:46:29.638Z,87.70
2019-02-05T13:49:00.122Z,88.03
2019-02-05T13:51:30.688Z,87.90
2019-02-05T13:54:01.267Z,88.13
2019-02-05T13:56:31.722Z,87.95
2019-02-05T13:59:02.179Z,87.94
2019-02-05T14:01:32.992Z,87.89
2019-02-05T14:04:03.538Z,87.95
2019-02-05T14:06:34.977Z,87.79
2019-02-05T14:09:11.036Z,88.01
2019-02-05T14:11:41.906Z,88.14
2019-02-05T14:14:12.664Z,88.52
2019-02-05T14:16:43.442Z,88.13
2019-02-05T14:19:14.444Z,88.32
2019-02-05T14:21:46.293Z,88.43
2019-02-05T14:24:16.784Z,88.67
2019-02-05T14:26:47.624Z,88.71
2019-02-05T14:29:18.510Z,88.75
2019-02-05T14:31:49.301Z,88.71
2019-02-05T14:34:19.808Z,88.98
2019-02-05T14:36:50.290Z,88.51
2019-02-05T14:39:20.842Z,88.54
2019-02-05T14:41:52.100Z,88.42
2019-02-05T14:44:22.575Z,88.45
2019-02-05T14:46:53.468Z,87.95
2019-02-05T14:49:23.913Z,88.36
2019-02-05T14:51:54.363Z,88.29
2019-02-05T14:54:25.231Z,88.07
2019-02-05T14:56:55.680Z,88.46
2019-02-05T14:59:26.562Z,88.57
2019-02-05T15:01:57.020Z,88.29
2019-02-05T15:04:27.863Z,88.64
2019-02-05T15:06:58.326Z,88.46
2019-02-05T15:09:28.854Z,88.54
2019-02-05T15:11:59.651Z,88.29
2019-02-05T15:14:30.094Z,88.74
2019-02-05T15:17:00.565Z,88.72
2019-02-05T15:19:31.412Z,88.35
2019-02-05T15:22:01.874Z,88.32
2019-02-05T15:24:37.953Z,88.45
2019-02-05T15:27:04.616Z,88.24
2019-02-05T15:29:35.115Z,88.17
2019-02-05T15:32:05.954Z,88.08
2019-02-05T15:34:36.407Z,88.13
2019-02-05T15:37:07.870Z,87.75
2019-02-05T15:39:38.711Z,88.02
2019-02-05T15:42:09.201Z,87.94
2019-02-05T15:44:39.647Z,87.76
2019-02-05T15:47:10.151Z,87.79
2019-02-05T15:49:41.007Z,87.88
2019-02-05T15:52:11.630Z,88.04
2019-02-05T15:54:42.113Z,88.06
2019-02-05T15:57:12.567Z,87.88
2019-02-05T15:59:43.068Z,88.12
2019-02-05T16:02:13.618Z,87.82
2019-02-05T16:04:44.069Z,87.91
2019-02-05T16:07:15.324Z,88.16
2019-02-05T16:09:45.783Z,87.87
2019-02-05T16:12:16.429Z,87.88
2019-02-05T16:14:46.879Z,87.54
2019-02-05T16:17:17.335Z,87.55
2019-02-05T16:19:47.810Z,87.97
2019-02-05T16:22:19.059Z,87.53
2019-02-05T16:24:49.538Z,87.83
2019-02-05T16:27:20.011Z,87.78
2019-02-05T16:29:50.851Z,88.01
2019-02-05T16:32:21.998Z,87.88
2019-02-05T16:34:53.143Z,87.93
2019-02-05T16:37:23.628Z,87.80
2019-02-05T16:39:54.078Z,88.00
2019-02-05T16:42:24.891Z,87.93
2019-02-05T16:44:55.339Z,88.32
2019-02-05T16:47:25.816Z,88.20
2019-02-05T16:49:56.303Z,88.28
2019-02-05T16:52:26.812Z,88.19
2019-02-05T16:54:57.268Z,88.04
2019-02-05T16:57:28.310Z,88.00
2019-02-05T16:59:58.783Z,88.01
2019-02-05T17:02:29.649Z,87.85
2019-02-05T17:05:00.264Z,87.90
2019-02-05T17:07:30.766Z,87.90
2019-02-05T17:10:01.251Z,87.64
2019-02-05T17:12:31.725Z,87.79
2019-02-05T17:15:03.044Z,87.59
2019-02-05T17:17:33.601Z,87.77
2019-02-05T17:20:05.951Z,87.93
2019-02-05T17:22:36.857Z,87.60
2019-02-05T17:25:07.924Z,87.25
2019-02-05T17:27:38.732Z,87.24
2019-02-05T17:30:12.756Z,87.14
2019-02-05T17:32:43.361Z,86.91
2019-02-05T17:35:14.085Z,87.23
2019-02-05T17:37:44.747Z,87.31
2019-02-05T17:40:17.339Z,87.40
2019-02-05T17:42:48.494Z,87.05
2019-02-05T17:45:21.695Z,87.31
2019-02-05T17:47:52.173Z,87.63
2019-02-05T17:50:23.221Z,87.84
2019-02-05T17:52:53.672Z,87.60
2019-02-05T17:55:24.603Z,88.00
2019-02-05T17:57:55.058Z,88.33
2019-02-05T18:00:30.165Z,88.54
2019-02-05T18:03:01.061Z,88.11
2019-02-05T18:05:34.815Z,87.71
2019-02-05T18:08:04.014Z,88.08
2019-02-05T18:10:34.475Z,87.85
2019-02-05T18:13:05.284Z,88.15
2019-02-05T18:15:36.102Z,88.48
2019-02-05T18:18:06.944Z,88.60
2019-02-05T18:20:37.792Z,88.57
2019-02-05T18:23:08.899Z,88.35
2019-02-05T18:25:39.418Z,88.38
2019-02-05T18:28:10.713Z,88.53
2019-02-05T18:30:41.578Z,88.50
2019-02-05T18:33:12.407Z,88.22
2019-02-05T18:35:44.712Z,87.43
2019-02-05T18:38:16.153Z,87.76
2019-02-05T18:40:47.075Z,88.14
2019-02-05T18:43:17.580Z,88.30
2019-02-05T18:45:48.059Z,88.46
2019-02-05T18:48:18.877Z,87.94
2019-02-05T18:50:49.630Z,87.90
2019-02-05T18:53:21.165Z,87.91
2019-02-05T18:55:53.773Z,88.29
2019-02-05T18:58:27.927Z,88.04
2019-02-05T19:00:59.107Z,88.33
2019-02-05T19:03:30.151Z,88.17
2019-02-05T19:06:01.011Z,87.97
2019-02-05T19:08:31.771Z,87.85
2019-02-05T19:11:02.232Z,87.82
2019-02-05T19:13:32.904Z,87.60
2019-02-05T19:16:07.082Z,87.62
2019-02-05T19:18:38.769Z,87.74
2019-02-05T19:21:12.198Z,87.90
2019-02-05T19:23:43.132Z,87.94
2019-02-05T19:26:19.995Z,88.05
2019-02-05T19:28:50.822Z,87.76
2019-02-05T19:31:38.867Z,87.70
2019-02-05T19:34:11.445Z,87.45
2019-02-05T19:36:41.940Z,87.54
2019-02-05T19:39:14.526Z,87.58
2019-02-05T19:41:45.312Z,87.67
2019-02-05T19:44:16.183Z,87.81
2019-02-05T19:47:15.208Z,87.89
2019-02-05T19:49:50.951Z,87.89
2019-02-05T19:52:27.712Z,87.54
2019-02-05T19:54:58.054Z,87.47
2019-02-05T19:57:29.750Z,87.67
2019-02-05T20:00:01.167Z,87.60
2019-02-05T20:02:32.249Z,87.58
2019-02-05T20:05:02.702Z,87.56
2019-02-05T20:07:36.317Z,87.56
2019-02-05T20:10:09.260Z,87.32
2019-02-05T20:12:40.130Z,87.50
2019-02-05T20:15:10.603Z,87.30
2019-02-05T20:17:41.925Z,87.27
2019-02-05T20:20:14.101Z,87.26
2019-02-05T20:22:44.906Z,87.20
2019-02-05T20:25:15.483Z,87.29
2019-02-05T20:27:46.730Z,87.42
2019-02-05T20:30:18.012Z,87.44
2019-02-05T20:32:48.543Z,87.46
2019-02-05T20:35:19.368Z,87.49
2019-02-05T20:37:50.327Z,87.32
2019-02-05T20:40:20.868Z,87.34
2019-02-05T20:42:51.734Z,87.48
2019-02-05T20:45:22.278Z,87.18
2019-02-05T20:47:55.796Z,87.46
2019-02-05T20:50:25.489Z,86.94
2019-02-05T20:52:56.813Z,87.12
2019-02-05T20:55:29.614Z,87.02
2019-02-05T20:58:00.062Z,87.28
2019-02-05T21:00:30.642Z,87.31
2019-02-05T21:03:01.228Z,86.93
2019-02-05T21:05:31.768Z,87.22
2019-02-05T21:08:02.829Z,87.29
2019-02-05T21:10:34.328Z,87.41
2019-02-05T21:13:05.244Z,87.25
2019-02-05T21:15:36.082Z,87.37
2019-02-05T21:18:07.207Z,87.36
2019-02-05T21:20:37.689Z,87.13
2019-02-05T21:23:08.307Z,87.28
2019-02-05T21:25:38.886Z,86.81
2019-02-05T21:28:09.454Z,86.54
2019-02-05T21:30:39.944Z,86.77
2019-02-05T21:33:10.472Z,86.46
2019-02-05T21:35:41.198Z,86.56
2019-02-05T21:38:11.888Z,86.75
2019-02-05T21:40:42.341Z,86.88
2019-02-05T21:43:12.826Z,86.85
2019-02-05T21:45:43.777Z,86.81
2019-02-05T21:48:14.427Z,86.90
2019-02-05T21:50:45.650Z,86.94
2019-02-05T21:53:16.448Z,86.76
2019-02-05T21:55:47.233Z,86.60
2019-02-05T21:58:17.687Z,86.07
2019-02-05T22:00:48.171Z,85.82
2019-02-05T22:03:18.723Z,85.86
2019-02-05T22:05:49.269Z,86.05
2019-02-05T22:08:19.797Z,85.89
2019-02-05T22:10:50.278Z,85.49
2019-02-05T22:13:22.416Z,85.26
2019-02-05T22:15:52.870Z,84.81
2019-02-05T22:18:23.374Z,85.58
2019-02-05T22:20:54.191Z,85.85
2019-02-05T22:23:25.021Z,85.97
2019-02-05T22:25:55.604Z,86.17
2019-02-05T22:28:26.014Z,85.84
2019-02-05T22:30:56.893Z,85.82
2019-02-05T22:33:28.211Z,85.96
2019-02-05T22:35:59.086Z,85.76
2019-02-05T22:38:29.537Z,85.79
2019-02-05T22:40:59.994Z,86.07
2019-02-05T22:43:30.474Z,86.09
2019-02-05T22:46:01.199Z,86.23
2019-02-05T22:48:32.434Z,86.18
2019-02-05T22:51:02.969Z,85.94
2019-02-05T22:53:33.519Z,86.00
2019-02-05T22:56:04.101Z,86.04
2019-02-05T22:58:34.549Z,85.16
2019-02-05T23:01:23.358Z,85.59
2019-02-05T23:04:05.875Z,85.61
2019-02-05T23:07:10.179Z,85.93
2019-02-05T23:09:46.083Z,85.66
2019-02-05T23:12:32.679Z,85.74
2019-02-05T23:15:24.248Z,85.91
2019-02-05T23:17:54.852Z,85.78
2019-02-05T23:20:25.821Z,85.66
2019-02-05T23:22:57.197Z,85.77
2019-02-05T23:25:27.836Z,85.90
2019-02-05T23:27:58.386Z,86.01
2019-02-05T23:30:30.638Z,85.59
2019-02-05T23:33:01.130Z,85.98
2019-02-05T23:35:33.323Z,86.14
2019-02-05T23:38:04.172Z,85.81
2019-02-05T23:40:34.792Z,85.76
2019-02-05T23:43:05.800Z,86.02
2019-02-05T23:45:36.673Z,86.15
2019-02-05T23:48:08.031Z,85.99
2019-02-05T23:50:38.474Z,85.84
2019-02-05T23:53:09.291Z,86.13
2019-02-05T23:55:39.766Z,86.09
2019-02-05T23:58:10.682Z,85.79
